sensor_id;sensor_type;location;lat;lon;timestamp;P1;durP1;ratioP1;P2;durP2;ratioP2
15876;SDS011;8037;51.666;7.834;2022-10-22T00:01:12;12.03;;;3.13;;
15876;SDS011;8037;51.666;7.834;2022-10-22T00:03:38;18.70;;;3.07;;
15876;SDS011;8037;51.666;7.834;2022-10-22T00:06:04;3.30;;;2.80;;
15876;SDS011;8037;51.666;7.834;2022-10-22T00:08:30;6.90;;;3.03;;
15876;SDS011;8037;51.666;7.834;2022-10-22T00:10:56;3.27;;;2.53;;
15876;SDS011;8037;51.666;7.834;2022-10-22T00:13:22;2.40;;;2.03;;
15876;SDS011;8037;51.666;7.834;2022-10-22T00:15:48;2.47;;;2.27;;
15876;SDS011;8037;51.666;7.834;2022-10-22T00:18:14;3.33;;;2.70;;
15876;SDS011;8037;51.666;7.834;2022-10-22T00:20:41;2.50;;;1.90;;
15876;SDS011;8037;51.666;7.834;2022-10-22T00:23:07;10.10;;;3.20;;
15876;SDS011;8037;51.666;7.834;2022-10-22T00:25:34;10.33;;;2.30;;
15876;SDS011;8037;51.666;7.834;2022-10-22T00:28:00;9.70;;;1.90;;
15876;SDS011;8037;51.666;7.834;2022-10-22T00:30:27;5.37;;;1.80;;
15876;SDS011;8037;51.666;7.834;2022-10-22T00:32:53;1.90;;;1.77;;
15876;SDS011;8037;51.666;7.834;2022-10-22T00:35:18;2.20;;;1.50;;
15876;SDS011;8037;51.666;7.834;2022-10-22T00:37:44;5.80;;;2.10;;
15876;SDS011;8037;51.666;7.834;2022-10-22T00:40:11;15.47;;;2.37;;
15876;SDS011;8037;51.666;7.834;2022-10-22T00:42:37;1.47;;;1.37;;
15876;SDS011;8037;51.666;7.834;2022-10-22T00:50:01;2.93;;;2.20;;
15876;SDS011;8037;51.666;7.834;2022-10-22T00:52:29;2.40;;;2.20;;
15876;SDS011;8037;51.666;7.834;2022-10-22T00:54:54;2.50;;;2.30;;
15876;SDS011;8037;51.666;7.834;2022-10-22T00:57:21;1.93;;;1.83;;
15876;SDS011;8037;51.666;7.834;2022-10-22T00:59:47;8.70;;;2.90;;
15876;SDS011;8037;51.666;7.834;2022-10-22T01:02:14;4.40;;;2.40;;
15876;SDS011;8037;51.666;7.834;2022-10-22T01:04:40;2.33;;;2.10;;
15876;SDS011;8037;51.666;7.834;2022-10-22T01:07:06;2.93;;;2.13;;
15876;SDS011;8037;51.666;7.834;2022-10-22T01:09:41;6.20;;;2.33;;
15876;SDS011;8037;51.666;7.834;2022-10-22T01:15:28;1.90;;;1.80;;
15876;SDS011;8037;51.666;7.834;2022-10-22T01:18:05;2.10;;;2.00;;
15876;SDS011;8037;51.666;7.834;2022-10-22T01:20:58;2.10;;;1.90;;
15876;SDS011;8037;51.666;7.834;2022-10-22T01:31:22;3.27;;;2.80;;
15876;SDS011;8037;51.666;7.834;2022-10-22T01:33:52;22.53;;;4.40;;
15876;SDS011;8037;51.666;7.834;2022-10-22T01:36:19;3.70;;;3.37;;
15876;SDS011;8037;51.666;7.834;2022-10-22T01:38:45;2.67;;;2.57;;
15876;SDS011;8037;51.666;7.834;2022-10-22T01:41:13;14.70;;;3.90;;
15876;SDS011;8037;51.666;7.834;2022-10-22T01:43:39;3.50;;;2.60;;
15876;SDS011;8037;51.666;7.834;2022-10-22T01:46:05;6.10;;;3.30;;
15876;SDS011;8037;51.666;7.834;2022-10-22T01:54:33;2.67;;;2.40;;
15876;SDS011;8037;51.666;7.834;2022-10-22T02:00:09;4.03;;;3.20;;
15876;SDS011;8037;51.666;7.834;2022-10-22T02:02:41;27.23;;;3.47;;
15876;SDS011;8037;51.666;7.834;2022-10-22T02:05:29;4.67;;;2.80;;
15876;SDS011;8037;51.666;7.834;2022-10-22T02:08:05;3.93;;;2.57;;
15876;SDS011;8037;51.666;7.834;2022-10-22T02:10:38;3.87;;;2.80;;
15876;SDS011;8037;51.666;7.834;2022-10-22T02:13:08;3.20;;;2.90;;
15876;SDS011;8037;51.666;7.834;2022-10-22T02:15:40;4.40;;;2.87;;
15876;SDS011;8037;51.666;7.834;2022-10-22T02:18:09;10.13;;;3.23;;
15876;SDS011;8037;51.666;7.834;2022-10-22T02:20:36;5.03;;;3.70;;
15876;SDS011;8037;51.666;7.834;2022-10-22T02:23:05;3.73;;;3.20;;
15876;SDS011;8037;51.666;7.834;2022-10-22T02:25:31;2.87;;;2.67;;
15876;SDS011;8037;51.666;7.834;2022-10-22T02:28:01;2.37;;;2.27;;
15876;SDS011;8037;51.666;7.834;2022-10-22T02:30:30;3.20;;;3.00;;
15876;SDS011;8037;51.666;7.834;2022-10-22T02:33:07;3.10;;;2.90;;
15876;SDS011;8037;51.666;7.834;2022-10-22T02:35:40;3.57;;;2.90;;
15876;SDS011;8037;51.666;7.834;2022-10-22T02:38:07;3.37;;;3.07;;
15876;SDS011;8037;51.666;7.834;2022-10-22T02:40:34;5.10;;;3.27;;
15876;SDS011;8037;51.666;7.834;2022-10-22T02:43:02;2.53;;;2.43;;
15876;SDS011;8037;51.666;7.834;2022-10-22T02:45:29;5.43;;;3.43;;
15876;SDS011;8037;51.666;7.834;2022-10-22T02:47:55;3.17;;;2.97;;
15876;SDS011;8037;51.666;7.834;2022-10-22T02:50:21;2.67;;;2.43;;
15876;SDS011;8037;51.666;7.834;2022-10-22T02:52:46;4.03;;;3.30;;
15876;SDS011;8037;51.666;7.834;2022-10-22T02:55:12;4.27;;;2.37;;
15876;SDS011;8037;51.666;7.834;2022-10-22T02:57:38;5.23;;;2.60;;
15876;SDS011;8037;51.666;7.834;2022-10-22T03:00:05;3.90;;;2.33;;
15876;SDS011;8037;51.666;7.834;2022-10-22T03:02:31;3.60;;;2.60;;
15876;SDS011;8037;51.666;7.834;2022-10-22T03:04:57;15.20;;;3.20;;
15876;SDS011;8037;51.666;7.834;2022-10-22T03:07:23;2.33;;;2.10;;
15876;SDS011;8037;51.666;7.834;2022-10-22T03:09:49;1.87;;;1.77;;
15876;SDS011;8037;51.666;7.834;2022-10-22T03:12:15;6.00;;;2.27;;
15876;SDS011;8037;51.666;7.834;2022-10-22T03:14:41;14.03;;;2.90;;
15876;SDS011;8037;51.666;7.834;2022-10-22T03:17:07;2.00;;;1.90;;
15876;SDS011;8037;51.666;7.834;2022-10-22T03:19:33;2.70;;;2.50;;
15876;SDS011;8037;51.666;7.834;2022-10-22T03:22:04;3.47;;;2.50;;
15876;SDS011;8037;51.666;7.834;2022-10-22T03:24:37;8.20;;;2.83;;
15876;SDS011;8037;51.666;7.834;2022-10-22T03:27:09;5.00;;;2.30;;
15876;SDS011;8037;51.666;7.834;2022-10-22T03:29:38;2.20;;;2.10;;
15876;SDS011;8037;51.666;7.834;2022-10-22T03:32:05;2.33;;;2.13;;
15876;SDS011;8037;51.666;7.834;2022-10-22T03:34:31;4.17;;;2.30;;
15876;SDS011;8037;51.666;7.834;2022-10-22T03:36:57;6.73;;;2.53;;
15876;SDS011;8037;51.666;7.834;2022-10-22T03:39:25;6.50;;;2.53;;
15876;SDS011;8037;51.666;7.834;2022-10-22T03:41:53;2.23;;;2.03;;
15876;SDS011;8037;51.666;7.834;2022-10-22T03:44:19;2.27;;;2.17;;
15876;SDS011;8037;51.666;7.834;2022-10-22T03:46:46;6.83;;;2.57;;
15876;SDS011;8037;51.666;7.834;2022-10-22T03:49:13;2.20;;;2.10;;
15876;SDS011;8037;51.666;7.834;2022-10-22T03:51:38;2.70;;;2.50;;
15876;SDS011;8037;51.666;7.834;2022-10-22T03:54:05;7.80;;;2.87;;
15876;SDS011;8037;51.666;7.834;2022-10-22T03:56:30;2.80;;;2.60;;
15876;SDS011;8037;51.666;7.834;2022-10-22T03:58:57;3.67;;;2.57;;
15876;SDS011;8037;51.666;7.834;2022-10-22T04:01:25;2.27;;;2.10;;
15876;SDS011;8037;51.666;7.834;2022-10-22T04:03:52;3.80;;;2.10;;
15876;SDS011;8037;51.666;7.834;2022-10-22T04:06:17;3.20;;;2.57;;
15876;SDS011;8037;51.666;7.834;2022-10-22T04:08:44;5.03;;;2.60;;
15876;SDS011;8037;51.666;7.834;2022-10-22T04:11:10;5.90;;;2.40;;
15876;SDS011;8037;51.666;7.834;2022-10-22T04:13:37;2.60;;;2.00;;
15876;SDS011;8037;51.666;7.834;2022-10-22T04:16:07;3.37;;;2.33;;
15876;SDS011;8037;51.666;7.834;2022-10-22T04:18:41;12.97;;;2.67;;
15876;SDS011;8037;51.666;7.834;2022-10-22T04:21:08;2.90;;;2.60;;
15876;SDS011;8037;51.666;7.834;2022-10-22T04:23:34;6.27;;;3.30;;
15876;SDS011;8037;51.666;7.834;2022-10-22T04:26:01;7.53;;;2.70;;
15876;SDS011;8037;51.666;7.834;2022-10-22T04:28:28;2.33;;;1.90;;
15876;SDS011;8037;51.666;7.834;2022-10-22T04:30:55;3.50;;;2.00;;
15876;SDS011;8037;51.666;7.834;2022-10-22T04:33:21;20.13;;;2.17;;
15876;SDS011;8037;51.666;7.834;2022-10-22T04:35:47;2.50;;;2.30;;
15876;SDS011;8037;51.666;7.834;2022-10-22T04:38:13;4.27;;;2.27;;
15876;SDS011;8037;51.666;7.834;2022-10-22T04:40:39;6.50;;;3.00;;
15876;SDS011;8037;51.666;7.834;2022-10-22T04:43:05;3.20;;;2.17;;
15876;SDS011;8037;51.666;7.834;2022-10-22T04:45:34;2.53;;;2.10;;
15876;SDS011;8037;51.666;7.834;2022-10-22T04:48:00;10.90;;;2.13;;
15876;SDS011;8037;51.666;7.834;2022-10-22T04:50:26;2.53;;;2.40;;
15876;SDS011;8037;51.666;7.834;2022-10-22T04:52:52;4.30;;;3.20;;
15876;SDS011;8037;51.666;7.834;2022-10-22T04:55:18;7.40;;;4.80;;
15876;SDS011;8037;51.666;7.834;2022-10-22T04:57:44;4.30;;;3.77;;
15876;SDS011;8037;51.666;7.834;2022-10-22T05:00:09;7.33;;;2.53;;
15876;SDS011;8037;51.666;7.834;2022-10-22T05:02:35;22.37;;;2.13;;
15876;SDS011;8037;51.666;7.834;2022-10-22T05:05:02;7.13;;;2.13;;
15876;SDS011;8037;51.666;7.834;2022-10-22T05:07:27;2.30;;;2.20;;
15876;SDS011;8037;51.666;7.834;2022-10-22T05:09:53;2.90;;;2.23;;
15876;SDS011;8037;51.666;7.834;2022-10-22T05:12:19;10.50;;;2.40;;
15876;SDS011;8037;51.666;7.834;2022-10-22T05:14:45;3.43;;;1.90;;
15876;SDS011;8037;51.666;7.834;2022-10-22T05:17:11;3.07;;;2.07;;
15876;SDS011;8037;51.666;7.834;2022-10-22T05:19:37;3.33;;;1.77;;
15876;SDS011;8037;51.666;7.834;2022-10-22T05:22:04;1.90;;;1.80;;
15876;SDS011;8037;51.666;7.834;2022-10-22T05:24:30;1.60;;;1.50;;
15876;SDS011;8037;51.666;7.834;2022-10-22T05:26:57;17.93;;;2.27;;
15876;SDS011;8037;51.666;7.834;2022-10-22T05:29:24;2.70;;;2.50;;
15876;SDS011;8037;51.666;7.834;2022-10-22T05:31:50;2.50;;;2.10;;
15876;SDS011;8037;51.666;7.834;2022-10-22T05:34:17;15.43;;;1.83;;
15876;SDS011;8037;51.666;7.834;2022-10-22T05:36:43;2.90;;;2.70;;
15876;SDS011;8037;51.666;7.834;2022-10-22T05:39:09;5.70;;;2.30;;
15876;SDS011;8037;51.666;7.834;2022-10-22T05:41:35;3.37;;;2.53;;
15876;SDS011;8037;51.666;7.834;2022-10-22T05:44:01;3.63;;;2.83;;
15876;SDS011;8037;51.666;7.834;2022-10-22T05:46:28;3.30;;;3.00;;
15876;SDS011;8037;51.666;7.834;2022-10-22T05:48:55;3.57;;;2.53;;
15876;SDS011;8037;51.666;7.834;2022-10-22T05:51:23;5.03;;;2.43;;
15876;SDS011;8037;51.666;7.834;2022-10-22T05:53:51;2.70;;;1.87;;
15876;SDS011;8037;51.666;7.834;2022-10-22T05:56:18;4.83;;;1.80;;
15876;SDS011;8037;51.666;7.834;2022-10-22T05:58:44;3.27;;;1.87;;
15876;SDS011;8037;51.666;7.834;2022-10-22T06:01:14;3.53;;;2.23;;
15876;SDS011;8037;51.666;7.834;2022-10-22T06:03:42;4.40;;;2.70;;
15876;SDS011;8037;51.666;7.834;2022-10-22T06:06:14;2.50;;;2.30;;
15876;SDS011;8037;51.666;7.834;2022-10-22T06:09:10;1.50;;;1.40;;
15876;SDS011;8037;51.666;7.834;2022-10-22T06:11:46;1.90;;;1.70;;
15876;SDS011;8037;51.666;7.834;2022-10-22T06:14:12;2.57;;;2.40;;
15876;SDS011;8037;51.666;7.834;2022-10-22T06:16:38;6.10;;;1.77;;
15876;SDS011;8037;51.666;7.834;2022-10-22T06:19:05;2.13;;;2.03;;
15876;SDS011;8037;51.666;7.834;2022-10-22T06:21:31;2.10;;;1.90;;
15876;SDS011;8037;51.666;7.834;2022-10-22T06:23:57;2.90;;;2.50;;
15876;SDS011;8037;51.666;7.834;2022-10-22T06:26:24;2.20;;;2.00;;
15876;SDS011;8037;51.666;7.834;2022-10-22T06:28:50;2.60;;;2.43;;
15876;SDS011;8037;51.666;7.834;2022-10-22T06:31:16;2.87;;;2.67;;
15876;SDS011;8037;51.666;7.834;2022-10-22T06:33:42;6.03;;;1.90;;
15876;SDS011;8037;51.666;7.834;2022-10-22T06:36:12;2.30;;;2.07;;
15876;SDS011;8037;51.666;7.834;2022-10-22T06:38:39;1.90;;;1.80;;
15876;SDS011;8037;51.666;7.834;2022-10-22T06:41:10;2.90;;;2.07;;
15876;SDS011;8037;51.666;7.834;2022-10-22T06:43:37;4.87;;;1.77;;
15876;SDS011;8037;51.666;7.834;2022-10-22T06:46:04;4.93;;;2.47;;
15876;SDS011;8037;51.666;7.834;2022-10-22T06:48:32;2.40;;;2.30;;
15876;SDS011;8037;51.666;7.834;2022-10-22T06:51:00;2.63;;;2.43;;
15876;SDS011;8037;51.666;7.834;2022-10-22T06:53:28;2.70;;;2.37;;
15876;SDS011;8037;51.666;7.834;2022-10-22T06:55:54;12.23;;;2.77;;
15876;SDS011;8037;51.666;7.834;2022-10-22T06:58:20;2.10;;;1.83;;
15876;SDS011;8037;51.666;7.834;2022-10-22T07:00:46;3.40;;;3.10;;
15876;SDS011;8037;51.666;7.834;2022-10-22T07:03:12;2.33;;;2.13;;
15876;SDS011;8037;51.666;7.834;2022-10-22T07:05:39;2.57;;;2.00;;
15876;SDS011;8037;51.666;7.834;2022-10-22T07:08:05;2.83;;;2.60;;
15876;SDS011;8037;51.666;7.834;2022-10-22T07:10:30;8.43;;;2.87;;
15876;SDS011;8037;51.666;7.834;2022-10-22T07:12:56;6.93;;;2.67;;
15876;SDS011;8037;51.666;7.834;2022-10-22T07:15:22;6.90;;;2.30;;
15876;SDS011;8037;51.666;7.834;2022-10-22T07:17:49;3.43;;;3.07;;
15876;SDS011;8037;51.666;7.834;2022-10-22T07:20:16;7.60;;;3.10;;
15876;SDS011;8037;51.666;7.834;2022-10-22T07:22:42;6.57;;;2.80;;
15876;SDS011;8037;51.666;7.834;2022-10-22T07:25:09;2.70;;;2.27;;
15876;SDS011;8037;51.666;7.834;2022-10-22T07:27:34;4.37;;;3.03;;
15876;SDS011;8037;51.666;7.834;2022-10-22T07:30:01;2.60;;;2.27;;
15876;SDS011;8037;51.666;7.834;2022-10-22T07:32:27;12.90;;;10.93;;
15876;SDS011;8037;51.666;7.834;2022-10-22T07:34:53;7.30;;;6.03;;
15876;SDS011;8037;51.666;7.834;2022-10-22T07:37:19;12.30;;;4.93;;
15876;SDS011;8037;51.666;7.834;2022-10-22T07:39:46;5.67;;;5.13;;
15876;SDS011;8037;51.666;7.834;2022-10-22T07:42:12;3.27;;;2.97;;
15876;SDS011;8037;51.666;7.834;2022-10-22T07:44:38;2.57;;;2.37;;
15876;SDS011;8037;51.666;7.834;2022-10-22T07:47:04;8.63;;;2.23;;
15876;SDS011;8037;51.666;7.834;2022-10-22T07:49:30;5.70;;;2.47;;
15876;SDS011;8037;51.666;7.834;2022-10-22T07:51:56;2.10;;;2.00;;
15876;SDS011;8037;51.666;7.834;2022-10-22T07:54:22;3.73;;;2.23;;
15876;SDS011;8037;51.666;7.834;2022-10-22T07:56:48;2.83;;;2.50;;
15876;SDS011;8037;51.666;7.834;2022-10-22T07:59:14;4.70;;;2.50;;
15876;SDS011;8037;51.666;7.834;2022-10-22T08:01:40;4.20;;;2.80;;
15876;SDS011;8037;51.666;7.834;2022-10-22T08:04:06;3.80;;;1.73;;
15876;SDS011;8037;51.666;7.834;2022-10-22T08:06:33;5.40;;;4.00;;
15876;SDS011;8037;51.666;7.834;2022-10-22T08:09:00;4.33;;;2.00;;
15876;SDS011;8037;51.666;7.834;2022-10-22T08:11:26;9.50;;;2.60;;
15876;SDS011;8037;51.666;7.834;2022-10-22T08:13:52;16.83;;;3.03;;
15876;SDS011;8037;51.666;7.834;2022-10-22T08:16:18;2.57;;;2.27;;
15876;SDS011;8037;51.666;7.834;2022-10-22T08:18:43;5.60;;;3.20;;
15876;SDS011;8037;51.666;7.834;2022-10-22T08:21:10;2.40;;;2.20;;
15876;SDS011;8037;51.666;7.834;2022-10-22T08:23:36;3.03;;;2.47;;
15876;SDS011;8037;51.666;7.834;2022-10-22T08:26:02;5.83;;;2.13;;
15876;SDS011;8037;51.666;7.834;2022-10-22T08:28:28;9.50;;;2.07;;
15876;SDS011;8037;51.666;7.834;2022-10-22T08:30:56;6.00;;;2.60;;
15876;SDS011;8037;51.666;7.834;2022-10-22T08:33:22;9.70;;;1.77;;
15876;SDS011;8037;51.666;7.834;2022-10-22T08:35:49;2.30;;;1.90;;
15876;SDS011;8037;51.666;7.834;2022-10-22T08:38:16;27.53;;;2.63;;
15876;SDS011;8037;51.666;7.834;2022-10-22T08:40:42;3.00;;;2.60;;
15876;SDS011;8037;51.666;7.834;2022-10-22T08:48:47;6.13;;;2.17;;
15876;SDS011;8037;51.666;7.834;2022-10-22T08:51:18;3.33;;;1.80;;
15876;SDS011;8037;51.666;7.834;2022-10-22T08:56:42;6.23;;;2.00;;
15876;SDS011;8037;51.666;7.834;2022-10-22T09:01:38;5.90;;;2.17;;
15876;SDS011;8037;51.666;7.834;2022-10-22T09:06:46;3.33;;;1.60;;
15876;SDS011;8037;51.666;7.834;2022-10-22T09:09:15;2.73;;;1.80;;
15876;SDS011;8037;51.666;7.834;2022-10-22T09:11:43;4.10;;;1.33;;
15876;SDS011;8037;51.666;7.834;2022-10-22T09:14:11;1.93;;;1.83;;
15876;SDS011;8037;51.666;7.834;2022-10-22T09:19:59;1.50;;;1.10;;
15876;SDS011;8037;51.666;7.834;2022-10-22T09:25:35;15.03;;;1.50;;
15876;SDS011;8037;51.666;7.834;2022-10-22T09:28:01;15.63;;;3.50;;
15876;SDS011;8037;51.666;7.834;2022-10-22T09:30:32;2.20;;;1.60;;
15876;SDS011;8037;51.666;7.834;2022-10-22T09:35:45;9.63;;;2.30;;
15876;SDS011;8037;51.666;7.834;2022-10-22T09:38:19;6.13;;;2.03;;
15876;SDS011;8037;51.666;7.834;2022-10-22T09:40:56;9.93;;;1.80;;
15876;SDS011;8037;51.666;7.834;2022-10-22T09:43:23;6.10;;;1.73;;
15876;SDS011;8037;51.666;7.834;2022-10-22T09:45:54;4.00;;;2.20;;
15876;SDS011;8037;51.666;7.834;2022-10-22T09:48:27;2.20;;;1.33;;
15876;SDS011;8037;51.666;7.834;2022-10-22T09:50:58;5.37;;;1.73;;
15876;SDS011;8037;51.666;7.834;2022-10-22T09:53:29;2.23;;;1.60;;
15876;SDS011;8037;51.666;7.834;2022-10-22T09:56:00;6.23;;;1.90;;
15876;SDS011;8037;51.666;7.834;2022-10-22T09:58:39;7.20;;;1.40;;
15876;SDS011;8037;51.666;7.834;2022-10-22T10:01:06;13.67;;;1.57;;
15876;SDS011;8037;51.666;7.834;2022-10-22T10:03:32;5.27;;;1.93;;
15876;SDS011;8037;51.666;7.834;2022-10-22T10:05:58;4.63;;;1.77;;
15876;SDS011;8037;51.666;7.834;2022-10-22T10:08:26;1.80;;;1.20;;
15876;SDS011;8037;51.666;7.834;2022-10-22T10:11:00;8.57;;;2.57;;
15876;SDS011;8037;51.666;7.834;2022-10-22T10:13:37;3.80;;;1.50;;
15876;SDS011;8037;51.666;7.834;2022-10-22T10:21:35;2.80;;;2.20;;
15876;SDS011;8037;51.666;7.834;2022-10-22T10:27:02;4.10;;;1.73;;
15876;SDS011;8037;51.666;7.834;2022-10-22T10:32:27;18.93;;;3.07;;
15876;SDS011;8037;51.666;7.834;2022-10-22T10:37:45;33.20;;;2.93;;
15876;SDS011;8037;51.666;7.834;2022-10-22T10:40:46;4.10;;;2.00;;
15876;SDS011;8037;51.666;7.834;2022-10-22T10:49:43;2.63;;;1.70;;
15876;SDS011;8037;51.666;7.834;2022-10-22T10:52:12;5.00;;;2.63;;
15876;SDS011;8037;51.666;7.834;2022-10-22T10:55:18;2.70;;;1.50;;
15876;SDS011;8037;51.666;7.834;2022-10-22T11:00:40;5.60;;;2.83;;
15876;SDS011;8037;51.666;7.834;2022-10-22T11:06:35;4.87;;;2.60;;
15876;SDS011;8037;51.666;7.834;2022-10-22T11:09:20;4.90;;;2.13;;
15876;SDS011;8037;51.666;7.834;2022-10-22T11:11:54;9.10;;;5.93;;
15876;SDS011;8037;51.666;7.834;2022-10-22T11:14:34;4.53;;;3.00;;
15876;SDS011;8037;51.666;7.834;2022-10-22T11:17:10;6.53;;;4.23;;
15876;SDS011;8037;51.666;7.834;2022-10-22T11:19:40;16.13;;;2.60;;
15876;SDS011;8037;51.666;7.834;2022-10-22T11:22:14;8.27;;;2.23;;
15876;SDS011;8037;51.666;7.834;2022-10-22T11:24:52;2.20;;;1.63;;
15876;SDS011;8037;51.666;7.834;2022-10-22T11:27:24;6.50;;;1.80;;
15876;SDS011;8037;51.666;7.834;2022-10-22T11:30:22;2.63;;;2.07;;
15876;SDS011;8037;51.666;7.834;2022-10-22T11:32:53;4.60;;;1.60;;
15876;SDS011;8037;51.666;7.834;2022-10-22T11:35:23;3.20;;;2.10;;
15876;SDS011;8037;51.666;7.834;2022-10-22T11:37:55;11.50;;;1.80;;
15876;SDS011;8037;51.666;7.834;2022-10-22T11:42:57;10.37;;;1.90;;
15876;SDS011;8037;51.666;7.834;2022-10-22T11:45:29;4.07;;;1.73;;
15876;SDS011;8037;51.666;7.834;2022-10-22T11:48:05;2.87;;;1.40;;
15876;SDS011;8037;51.666;7.834;2022-10-22T12:00:50;2.17;;;1.40;;
15876;SDS011;8037;51.666;7.834;2022-10-22T12:05:43;8.83;;;2.13;;
15876;SDS011;8037;51.666;7.834;2022-10-22T12:08:16;3.73;;;1.60;;
15876;SDS011;8037;51.666;7.834;2022-10-22T12:11:01;6.20;;;1.50;;
15876;SDS011;8037;51.666;7.834;2022-10-22T12:16:42;2.00;;;1.27;;
15876;SDS011;8037;51.666;7.834;2022-10-22T12:19:17;2.20;;;1.37;;
15876;SDS011;8037;51.666;7.834;2022-10-22T12:22:16;3.00;;;0.73;;
15876;SDS011;8037;51.666;7.834;2022-10-22T12:24:48;10.50;;;2.23;;
15876;SDS011;8037;51.666;7.834;2022-10-22T12:27:22;1.20;;;0.90;;
15876;SDS011;8037;51.666;7.834;2022-10-22T12:29:54;4.13;;;1.10;;
15876;SDS011;8037;51.666;7.834;2022-10-22T12:32:21;2.00;;;0.73;;
15876;SDS011;8037;51.666;7.834;2022-10-22T12:34:48;0.90;;;0.83;;
15876;SDS011;8037;51.666;7.834;2022-10-22T12:37:16;3.70;;;0.97;;
15876;SDS011;8037;51.666;7.834;2022-10-22T12:39:43;4.60;;;1.30;;
15876;SDS011;8037;51.666;7.834;2022-10-22T12:42:13;7.10;;;1.80;;
15876;SDS011;8037;51.666;7.834;2022-10-22T12:44:42;1.97;;;1.23;;
15876;SDS011;8037;51.666;7.834;2022-10-22T12:47:10;2.80;;;1.50;;
15876;SDS011;8037;51.666;7.834;2022-10-22T12:49:41;3.70;;;1.07;;
15876;SDS011;8037;51.666;7.834;2022-10-22T12:52:13;1.00;;;0.90;;
15876;SDS011;8037;51.666;7.834;2022-10-22T12:54:43;3.50;;;1.07;;
15876;SDS011;8037;51.666;7.834;2022-10-22T12:57:15;4.17;;;1.20;;
15876;SDS011;8037;51.666;7.834;2022-10-22T12:59:43;1.17;;;1.00;;
15876;SDS011;8037;51.666;7.834;2022-10-22T13:05:05;2.10;;;1.00;;
15876;SDS011;8037;51.666;7.834;2022-10-22T13:07:40;9.00;;;1.63;;
15876;SDS011;8037;51.666;7.834;2022-10-22T13:13:04;2.50;;;0.60;;
15876;SDS011;8037;51.666;7.834;2022-10-22T13:21:02;8.93;;;1.27;;
15876;SDS011;8037;51.666;7.834;2022-10-22T13:23:28;12.37;;;1.23;;
15876;SDS011;8037;51.666;7.834;2022-10-22T13:28:48;0.60;;;0.50;;
15876;SDS011;8037;51.666;7.834;2022-10-22T13:31:24;0.77;;;0.77;;
15876;SDS011;8037;51.666;7.834;2022-10-22T13:33:55;1.13;;;0.50;;
15876;SDS011;8037;51.666;7.834;2022-10-22T13:36:24;5.80;;;0.87;;
15876;SDS011;8037;51.666;7.834;2022-10-22T13:38:50;4.27;;;1.00;;
15876;SDS011;8037;51.666;7.834;2022-10-22T13:41:17;5.83;;;1.63;;
15876;SDS011;8037;51.666;7.834;2022-10-22T13:43:44;1.00;;;0.73;;
15876;SDS011;8037;51.666;7.834;2022-10-22T13:46:09;0.77;;;0.60;;
15876;SDS011;8037;51.666;7.834;2022-10-22T13:48:35;2.70;;;1.10;;
15876;SDS011;8037;51.666;7.834;2022-10-22T13:51:01;0.90;;;0.80;;
15876;SDS011;8037;51.666;7.834;2022-10-22T13:53:27;5.07;;;1.80;;
15876;SDS011;8037;51.666;7.834;2022-10-22T13:55:55;2.60;;;0.90;;
15876;SDS011;8037;51.666;7.834;2022-10-22T13:58:21;4.13;;;2.20;;
15876;SDS011;8037;51.666;7.834;2022-10-22T14:00:49;1.53;;;0.83;;
15876;SDS011;8037;51.666;7.834;2022-10-22T14:03:19;2.70;;;1.40;;
15876;SDS011;8037;51.666;7.834;2022-10-22T14:05:48;2.30;;;1.60;;
15876;SDS011;8037;51.666;7.834;2022-10-22T14:08:15;1.17;;;1.07;;
15876;SDS011;8037;51.666;7.834;2022-10-22T14:10:43;1.47;;;0.90;;
15876;SDS011;8037;51.666;7.834;2022-10-22T14:13:09;1.40;;;1.30;;
15876;SDS011;8037;51.666;7.834;2022-10-22T14:15:35;3.40;;;0.97;;
15876;SDS011;8037;51.666;7.834;2022-10-22T14:18:02;7.50;;;1.20;;
15876;SDS011;8037;51.666;7.834;2022-10-22T14:20:29;2.40;;;1.00;;
15876;SDS011;8037;51.666;7.834;2022-10-22T14:22:59;4.77;;;1.07;;
15876;SDS011;8037;51.666;7.834;2022-10-22T14:25:35;1.17;;;1.00;;
15876;SDS011;8037;51.666;7.834;2022-10-22T14:28:01;8.73;;;1.00;;
15876;SDS011;8037;51.666;7.834;2022-10-22T14:30:27;2.63;;;1.00;;
15876;SDS011;8037;51.666;7.834;2022-10-22T14:32:54;1.90;;;0.80;;
15876;SDS011;8037;51.666;7.834;2022-10-22T14:35:22;2.13;;;0.90;;
15876;SDS011;8037;51.666;7.834;2022-10-22T14:37:48;1.10;;;1.00;;
15876;SDS011;8037;51.666;7.834;2022-10-22T14:40:16;1.30;;;0.90;;
15876;SDS011;8037;51.666;7.834;2022-10-22T14:42:44;2.90;;;1.17;;
15876;SDS011;8037;51.666;7.834;2022-10-22T14:45:13;4.70;;;1.20;;
15876;SDS011;8037;51.666;7.834;2022-10-22T14:47:45;1.57;;;0.90;;
15876;SDS011;8037;51.666;7.834;2022-10-22T14:50:11;6.33;;;1.03;;
15876;SDS011;8037;51.666;7.834;2022-10-22T14:52:38;2.80;;;1.27;;
15876;SDS011;8037;51.666;7.834;2022-10-22T14:55:04;1.47;;;1.10;;
15876;SDS011;8037;51.666;7.834;2022-10-22T14:57:30;9.33;;;0.97;;
15876;SDS011;8037;51.666;7.834;2022-10-22T14:59:56;9.87;;;0.83;;
15876;SDS011;8037;51.666;7.834;2022-10-22T15:02:22;1.40;;;0.80;;
15876;SDS011;8037;51.666;7.834;2022-10-22T15:04:48;0.70;;;0.70;;
15876;SDS011;8037;51.666;7.834;2022-10-22T15:07:14;1.93;;;0.50;;
15876;SDS011;8037;51.666;7.834;2022-10-22T15:09:39;2.77;;;0.90;;
15876;SDS011;8037;51.666;7.834;2022-10-22T15:12:05;2.77;;;0.90;;
15876;SDS011;8037;51.666;7.834;2022-10-22T15:14:31;2.13;;;0.60;;
15876;SDS011;8037;51.666;7.834;2022-10-22T15:16:57;1.73;;;0.80;;
15876;SDS011;8037;51.666;7.834;2022-10-22T15:19:23;1.27;;;0.80;;
15876;SDS011;8037;51.666;7.834;2022-10-22T15:21:49;1.53;;;0.83;;
15876;SDS011;8037;51.666;7.834;2022-10-22T15:24:15;0.90;;;0.63;;
15876;SDS011;8037;51.666;7.834;2022-10-22T15:26:41;3.30;;;0.80;;
15876;SDS011;8037;51.666;7.834;2022-10-22T15:29:07;1.80;;;1.00;;
15876;SDS011;8037;51.666;7.834;2022-10-22T15:31:40;0.93;;;0.57;;
15876;SDS011;8037;51.666;7.834;2022-10-22T15:34:09;2.30;;;1.23;;
15876;SDS011;8037;51.666;7.834;2022-10-22T15:36:35;0.77;;;0.77;;
15876;SDS011;8037;51.666;7.834;2022-10-22T15:39:05;4.30;;;1.30;;
15876;SDS011;8037;51.666;7.834;2022-10-22T15:41:31;8.70;;;3.40;;
15876;SDS011;8037;51.666;7.834;2022-10-22T15:43:57;5.13;;;2.17;;
15876;SDS011;8037;51.666;7.834;2022-10-22T15:46:23;13.00;;;2.30;;
15876;SDS011;8037;51.666;7.834;2022-10-22T15:48:51;0.80;;;0.80;;
15876;SDS011;8037;51.666;7.834;2022-10-22T15:51:18;5.63;;;0.87;;
15876;SDS011;8037;51.666;7.834;2022-10-22T15:53:49;1.37;;;0.80;;
15876;SDS011;8037;51.666;7.834;2022-10-22T15:56:19;3.80;;;1.10;;
15876;SDS011;8037;51.666;7.834;2022-10-22T15:58:46;1.10;;;0.80;;
15876;SDS011;8037;51.666;7.834;2022-10-22T16:01:12;2.27;;;1.47;;
15876;SDS011;8037;51.666;7.834;2022-10-22T16:03:39;1.50;;;0.63;;
15876;SDS011;8037;51.666;7.834;2022-10-22T16:06:05;10.93;;;2.00;;
15876;SDS011;8037;51.666;7.834;2022-10-22T16:08:32;2.27;;;1.40;;
15876;SDS011;8037;51.666;7.834;2022-10-22T16:10:58;2.77;;;0.90;;
15876;SDS011;8037;51.666;7.834;2022-10-22T16:13:24;3.23;;;0.97;;
15876;SDS011;8037;51.666;7.834;2022-10-22T16:15:50;5.90;;;0.70;;
15876;SDS011;8037;51.666;7.834;2022-10-22T16:18:17;3.17;;;1.20;;
15876;SDS011;8037;51.666;7.834;2022-10-22T16:20:43;3.27;;;1.20;;
15876;SDS011;8037;51.666;7.834;2022-10-22T16:23:09;2.60;;;0.77;;
15876;SDS011;8037;51.666;7.834;2022-10-22T16:25:42;11.83;;;1.00;;
15876;SDS011;8037;51.666;7.834;2022-10-22T16:28:08;5.20;;;1.00;;
15876;SDS011;8037;51.666;7.834;2022-10-22T16:30:35;3.03;;;1.60;;
15876;SDS011;8037;51.666;7.834;2022-10-22T16:33:02;1.10;;;1.00;;
15876;SDS011;8037;51.666;7.834;2022-10-22T16:35:30;1.73;;;1.30;;
15876;SDS011;8037;51.666;7.834;2022-10-22T16:37:55;7.70;;;0.97;;
15876;SDS011;8037;51.666;7.834;2022-10-22T16:40:21;3.63;;;0.80;;
15876;SDS011;8037;51.666;7.834;2022-10-22T16:42:47;7.30;;;1.10;;
15876;SDS011;8037;51.666;7.834;2022-10-22T16:45:13;3.83;;;1.47;;
15876;SDS011;8037;51.666;7.834;2022-10-22T16:47:39;2.43;;;1.60;;
15876;SDS011;8037;51.666;7.834;2022-10-22T16:50:06;1.80;;;1.70;;
15876;SDS011;8037;51.666;7.834;2022-10-22T16:52:32;6.37;;;2.37;;
15876;SDS011;8037;51.666;7.834;2022-10-22T16:54:58;2.83;;;1.93;;